createdAt,value
2023-04-19T00:01:36.634Z,11.50
2023-04-19T00:04:04.128Z,11.60
2023-04-19T00:06:32.314Z,11.60
2023-04-19T00:08:59.311Z,11.50
2023-04-19T00:11:26.335Z,11.60
2023-04-19T00:13:53.978Z,11.50
2023-04-19T00:16:22.221Z,11.60
2023-04-19T00:18:49.481Z,11.60
2023-04-19T00:21:17.234Z,11.50
2023-04-19T00:23:44.878Z,11.50
2023-04-19T00:26:13.204Z,11.50
2023-04-19T00:28:40.184Z,11.50
2023-04-19T00:31:07.933Z,11.50
2023-04-19T00:33:35.063Z,11.50
2023-04-19T00:36:02.313Z,11.50
2023-04-19T00:38:29.569Z,11.50
2023-04-19T00:40:56.655Z,11.50
2023-04-19T00:43:23.677Z,11.50
2023-04-19T00:45:50.878Z,11.50
2023-04-19T00:48:18.620Z,11.50
2023-04-19T00:50:46.221Z,11.50
2023-04-19T00:53:13.713Z,11.50
2023-04-19T00:55:41.212Z,11.50
2023-04-19T00:58:09.247Z,11.50
2023-04-19T01:00:37.566Z,11.50
2023-04-19T01:03:05.204Z,11.50
2023-04-19T01:05:32.453Z,11.40
2023-04-19T01:07:59.557Z,11.40
2023-04-19T01:10:26.598Z,11.40
2023-04-19T01:12:54.046Z,11.40
2023-04-19T01:15:21.379Z,11.40
2023-04-19T01:17:48.407Z,11.40
2023-04-19T01:20:16.001Z,11.40
2023-04-19T01:22:43.191Z,11.40
2023-04-19T01:25:11.163Z,11.40
2023-04-19T01:27:38.306Z,11.40
2023-04-19T01:30:06.473Z,11.40
2023-04-19T01:32:33.927Z,11.40
2023-04-19T01:35:01.294Z,11.40
2023-04-19T01:37:28.319Z,11.40
2023-04-19T01:39:55.959Z,11.40
2023-04-19T01:42:23.477Z,11.40
2023-04-19T01:44:50.607Z,11.40
2023-04-19T01:47:17.621Z,11.40
2023-04-19T01:49:44.866Z,11.40
2023-04-19T01:52:11.835Z,11.40
2023-04-19T01:54:38.841Z,11.40
2023-04-19T01:57:06.029Z,11.40
2023-04-19T01:59:33.074Z,11.40
2023-04-19T02:02:00.396Z,11.40
2023-04-19T02:04:27.457Z,11.40
2023-04-19T02:06:54.544Z,11.40
2023-04-19T02:09:22.008Z,11.40
2023-04-19T02:11:49.251Z,11.40
2023-04-19T02:14:17.411Z,11.40
2023-04-19T02:16:44.508Z,11.40
2023-04-19T02:19:12.020Z,11.40
2023-04-19T02:21:39.097Z,11.40
2023-04-19T02:24:06.988Z,11.40
2023-04-19T02:26:34.134Z,11.40
2023-04-19T02:29:01.206Z,11.40
2023-04-19T02:31:29.056Z,11.40
2023-04-19T02:33:56.467Z,11.30
2023-04-19T02:36:23.593Z,11.30
2023-04-19T02:38:50.990Z,11.40
2023-04-19T02:41:18.172Z,11.40
2023-04-19T02:43:45.452Z,11.40
2023-04-19T02:46:12.575Z,11.40
2023-04-19T02:48:39.694Z,11.40
2023-04-19T02:51:07.960Z,11.40
2023-04-19T02:53:35.131Z,11.40
2023-04-19T02:56:02.442Z,11.40
2023-04-19T02:58:29.846Z,11.40
2023-04-19T03:00:57.073Z,11.40
2023-04-19T03:03:24.529Z,11.40
2023-04-19T03:05:51.710Z,11.40
2023-04-19T03:08:19.322Z,11.40
2023-04-19T03:10:46.856Z,11.40
2023-04-19T03:13:14.278Z,11.40
2023-04-19T03:15:44.413Z,11.30
2023-04-19T03:18:11.601Z,11.30
2023-04-19T03:20:38.846Z,11.30
2023-04-19T03:23:06.228Z,11.30
2023-04-19T03:25:33.952Z,11.30
2023-04-19T03:28:01.203Z,11.30
2023-04-19T03:30:28.310Z,11.30
2023-04-19T03:32:55.672Z,11.30
2023-04-19T03:35:26.602Z,11.30
2023-04-19T03:37:54.210Z,11.30
2023-04-19T03:40:21.360Z,11.30
2023-04-19T03:42:48.404Z,11.30
2023-04-19T03:45:16.009Z,11.20
2023-04-19T03:47:43.126Z,11.20
2023-04-19T03:50:10.890Z,11.20
2023-04-19T03:52:37.968Z,11.20
2023-04-19T03:55:05.694Z,11.20
2023-04-19T03:57:32.785Z,11.20
2023-04-19T04:00:00.496Z,11.20
2023-04-19T04:02:27.774Z,11.20
2023-04-19T04:04:55.634Z,11.10
2023-04-19T04:07:24.534Z,11.10
2023-04-19T04:09:51.979Z,11.10
2023-04-19T04:12:19.053Z,11.10
2023-04-19T04:14:48.096Z,11.10
2023-04-19T04:17:15.692Z,11.10
2023-04-19T04:19:43.025Z,11.10
2023-04-19T04:22:10.201Z,11.10
2023-04-19T04:24:41.614Z,11.10
2023-04-19T04:27:13.760Z,11.10
2023-04-19T04:29:41.560Z,11.20
2023-04-19T04:32:10.686Z,11.20
2023-04-19T04:34:39.005Z,11.20
2023-04-19T04:37:07.792Z,11.20
2023-04-19T04:39:39.684Z,11.30
2023-04-19T04:42:09.426Z,11.30
2023-04-19T04:44:36.783Z,11.30
2023-04-19T04:47:04.005Z,11.30
2023-04-19T04:49:31.441Z,11.30
2023-04-19T04:51:58.913Z,11.30
2023-04-19T04:54:26.534Z,11.30
2023-04-19T04:56:53.686Z,11.30
2023-04-19T04:59:20.778Z,11.30
2023-04-19T05:01:47.979Z,11.30
2023-04-19T05:04:15.805Z,11.30
2023-04-19T05:06:44.897Z,11.30
2023-04-19T05:09:12.478Z,11.30
2023-04-19T05:11:39.601Z,11.30
2023-04-19T05:14:06.980Z,11.30
2023-04-19T05:16:34.569Z,11.30
2023-04-19T05:19:01.936Z,11.30
2023-04-19T05:21:29.230Z,11.40
2023-04-19T05:23:56.907Z,11.40
2023-04-19T05:26:24.049Z,11.40
2023-04-19T05:28:51.172Z,11.40
2023-04-19T05:31:18.898Z,11.40
2023-04-19T05:33:46.421Z,11.40
2023-04-19T05:36:13.625Z,11.40
2023-04-19T05:38:40.893Z,11.40
2023-04-19T05:41:08.377Z,11.50
2023-04-19T05:43:36.077Z,11.50
2023-04-19T05:46:03.379Z,11.50
2023-04-19T05:48:30.716Z,11.50
2023-04-19T05:50:59.731Z,11.50
2023-04-19T05:53:26.804Z,11.50
2023-04-19T05:55:54.071Z,11.50
2023-04-19T05:58:21.153Z,11.60
2023-04-19T06:00:49.432Z,11.60
2023-04-19T06:03:17.370Z,11.60
2023-04-19T06:05:44.981Z,11.60
2023-04-19T06:08:12.874Z,11.60
2023-04-19T06:10:52.596Z,11.60
2023-04-19T06:13:21.832Z,11.60
2023-04-19T06:15:50.752Z,11.60
2023-04-19T06:18:19.556Z,11.60
2023-04-19T06:20:48.058Z,11.60
2023-04-19T06:23:15.649Z,11.60
2023-04-19T06:25:42.914Z,11.60
2023-04-19T06:28:10.568Z,11.60
2023-04-19T06:30:37.997Z,11.60
2023-04-19T06:33:05.075Z,11.60
2023-04-19T06:35:33.202Z,11.60
2023-04-19T06:38:00.480Z,11.70
2023-04-19T06:40:29.936Z,11.70
2023-04-19T06:42:57.029Z,11.70
2023-04-19T06:45:24.118Z,11.80
2023-04-19T06:47:51.821Z,11.80
2023-04-19T06:50:19.290Z,11.80
2023-04-19T06:52:46.575Z,11.90
2023-04-19T06:55:13.668Z,11.90
2023-04-19T06:57:41.204Z,11.90
2023-04-19T07:00:09.234Z,11.90
2023-04-19T07:02:36.455Z,11.90
2023-04-19T07:05:04.628Z,12.00
2023-04-19T07:07:31.734Z,12.00
2023-04-19T07:09:59.239Z,12.00
2023-04-19T07:12:26.442Z,12.00
2023-04-19T07:14:56.976Z,12.00
2023-04-19T07:17:24.316Z,12.00
2023-04-19T07:19:51.725Z,12.00
2023-04-19T07:22:18.796Z,12.00
2023-04-19T07:24:45.947Z,12.00
2023-04-19T07:27:14.959Z,12.00
2023-04-19T07:29:42.376Z,12.00
2023-04-19T07:32:10.011Z,12.00
2023-04-19T07:34:38.530Z,12.00
2023-04-19T07:37:06.420Z,12.00
2023-04-19T07:39:33.840Z,11.90
2023-04-19T07:42:02.410Z,11.90
2023-04-19T07:44:29.725Z,11.90
2023-04-19T07:46:57.055Z,11.90
2023-04-19T07:49:24.417Z,11.90
2023-04-19T07:51:51.836Z,11.90
2023-04-19T07:54:21.315Z,11.90
2023-04-19T07:56:49.915Z,11.90
2023-04-19T07:59:17.530Z,11.90
2023-04-19T08:01:44.932Z,11.90
2023-04-19T08:04:12.379Z,11.90
2023-04-19T08:06:40.409Z,11.90
2023-04-19T08:09:07.680Z,11.90
2023-04-19T08:11:34.948Z,11.90
2023-04-19T08:14:12.015Z,11.90
2023-04-19T08:17:19.231Z,12.00
2023-04-19T08:19:29.287Z,11.90
2023-04-19T08:21:57.141Z,11.90
2023-04-19T08:24:24.247Z,11.90
2023-04-19T08:26:54.830Z,11.90
2023-04-19T08:29:22.787Z,11.80
2023-04-19T08:31:50.269Z,11.80
2023-04-19T08:34:17.535Z,11.80
2023-04-19T08:37:00.117Z,11.80
2023-04-19T08:39:37.073Z,11.80
2023-04-19T08:42:13.422Z,11.80
2023-04-19T08:45:09.509Z,11.90
2023-04-19T08:50:24.096Z,12.00
2023-04-19T08:53:02.824Z,12.00
2023-04-19T08:55:47.281Z,12.10
2023-04-19T08:58:32.926Z,12.10
2023-04-19T09:01:12.863Z,12.10
2023-04-19T09:03:59.410Z,12.20
2023-04-19T09:06:28.658Z,12.20
2023-04-19T09:09:28.393Z,12.20
2023-04-19T09:12:01.190Z,12.20
2023-04-19T09:14:29.518Z,12.10
2023-04-19T09:17:16.045Z,12.10
2023-04-19T09:19:50.360Z,12.10
2023-04-19T09:22:18.121Z,12.10
2023-04-19T09:25:22.784Z,12.00
2023-04-19T09:27:34.528Z,12.00
2023-04-19T09:30:03.074Z,12.00
2023-04-19T09:32:45.465Z,12.00
2023-04-19T09:35:12.794Z,12.00
2023-04-19T09:40:22.867Z,12.00
2023-04-19T09:45:29.666Z,11.90
2023-04-19T09:48:02.805Z,11.90
2023-04-19T09:50:32.022Z,11.90
2023-04-19T09:53:01.272Z,11.90
2023-04-19T09:55:29.848Z,11.80
2023-04-19T09:58:01.305Z,11.80
2023-04-19T10:00:31.548Z,11.80
2023-04-19T10:03:04.546Z,11.80
2023-04-19T10:05:32.430Z,11.80
2023-04-19T10:08:02.865Z,11.70
2023-04-19T10:15:49.321Z,11.70
2023-04-19T10:18:20.038Z,11.70
2023-04-19T10:20:50.308Z,11.70
2023-04-19T10:23:18.437Z,11.80
2023-04-19T10:25:50.834Z,11.80
2023-04-19T10:28:18.236Z,11.80
2023-04-19T10:30:56.019Z,11.90
2023-04-19T10:33:35.816Z,11.90
2023-04-19T10:36:03.579Z,11.90
2023-04-19T10:38:39.855Z,11.90
2023-04-19T10:41:15.490Z,11.90
2023-04-19T10:44:05.001Z,11.90
2023-04-19T10:46:33.021Z,12.00
2023-04-19T10:49:01.392Z,12.00
2023-04-19T10:51:31.156Z,12.00
2023-04-19T10:53:59.465Z,12.00
2023-04-19T10:56:35.886Z,12.00
2023-04-19T10:59:03.428Z,12.00
2023-04-19T11:01:41.087Z,12.00
2023-04-19T11:04:12.546Z,12.00
2023-04-19T11:07:01.959Z,12.00
2023-04-19T11:09:29.012Z,12.00
2023-04-19T11:12:03.974Z,12.00
2023-04-19T11:14:33.038Z,12.00
2023-04-19T11:17:00.999Z,12.00
2023-04-19T11:19:28.356Z,12.00
2023-04-19T11:21:58.624Z,12.00
2023-04-19T11:24:25.872Z,12.00
2023-04-19T11:26:55.292Z,12.00
2023-04-19T11:29:24.674Z,12.10
2023-04-19T11:31:52.353Z,12.10
2023-04-19T11:34:23.827Z,12.10
2023-04-19T11:36:54.008Z,12.10
2023-04-19T11:39:22.404Z,12.10
2023-04-19T11:41:51.086Z,12.10
2023-04-19T11:44:20.677Z,12.10
2023-04-19T11:47:06.399Z,12.00
2023-04-19T11:49:34.559Z,12.00
2023-04-19T11:52:05.275Z,12.00
2023-04-19T11:54:33.293Z,12.00
2023-04-19T11:57:08.056Z,12.00
2023-04-19T11:59:36.436Z,12.00
2023-04-19T12:02:07.124Z,12.00
2023-04-19T12:04:34.826Z,12.00
2023-04-19T12:07:03.283Z,12.00
2023-04-19T12:09:31.294Z,12.00
2023-04-19T12:11:59.191Z,12.00
2023-04-19T12:14:27.032Z,12.00
2023-04-19T12:17:08.221Z,12.00
2023-04-19T12:19:37.922Z,12.00
2023-04-19T12:22:12.185Z,12.00
2023-04-19T12:24:40.237Z,11.90
2023-04-19T12:27:08.013Z,11.90
2023-04-19T12:29:35.729Z,11.90
2023-04-19T12:32:03.624Z,11.90
2023-04-19T12:34:31.441Z,11.80
2023-04-19T12:36:59.279Z,11.80
2023-04-19T12:39:26.612Z,11.70
2023-04-19T12:41:53.718Z,11.60
2023-04-19T12:44:20.947Z,11.60
2023-04-19T12:46:48.181Z,11.50
2023-04-19T12:49:15.572Z,11.50
2023-04-19T12:51:42.997Z,11.50
2023-04-19T12:54:11.368Z,11.40
2023-04-19T12:56:38.845Z,11.40
2023-04-19T12:59:06.294Z,11.40
2023-04-19T13:01:34.951Z,11.40
2023-04-19T13:04:02.544Z,11.40
2023-04-19T13:06:30.294Z,11.30
2023-04-19T13:09:01.190Z,11.30
2023-04-19T13:11:28.753Z,11.20
2023-04-19T13:13:55.762Z,11.20
2023-04-19T13:16:23.868Z,11.10
2023-04-19T13:18:52.829Z,11.10
2023-04-19T13:21:20.211Z,11.10
2023-04-19T13:23:47.247Z,11.10
2023-04-19T13:26:16.314Z,11.00
2023-04-19T13:28:45.840Z,11.00
2023-04-19T13:31:12.968Z,11.10
2023-04-19T13:33:40.459Z,11.10
2023-04-19T13:36:07.810Z,11.10
2023-04-19T13:38:35.380Z,11.10
2023-04-19T13:41:03.361Z,11.00
2023-04-19T13:43:30.912Z,11.00
2023-04-19T13:45:58.242Z,11.00
2023-04-19T13:48:29.610Z,11.00
2023-04-19T13:50:57.304Z,11.00
2023-04-19T13:53:24.954Z,11.00
2023-04-19T13:55:52.572Z,11.00
2023-04-19T13:58:19.984Z,11.00
2023-04-19T14:00:51.306Z,11.00
2023-04-19T14:03:19.076Z,11.00
2023-04-19T14:05:49.154Z,11.00
2023-04-19T14:08:18.364Z,10.90
2023-04-19T14:10:45.789Z,11.00
2023-04-19T14:13:13.160Z,11.00
2023-04-19T14:15:41.110Z,11.00
2023-04-19T14:18:08.398Z,11.00
2023-04-19T14:20:36.103Z,11.10
2023-04-19T14:23:03.942Z,11.10
2023-04-19T14:25:31.428Z,11.10
2023-04-19T14:27:59.268Z,11.10
2023-04-19T14:30:28.470Z,11.10
2023-04-19T14:32:57.373Z,11.00
2023-04-19T14:35:24.683Z,11.00
2023-04-19T14:37:51.865Z,11.00
2023-04-19T14:40:20.280Z,11.00
2023-04-19T14:42:47.341Z,10.90
2023-04-19T14:45:14.564Z,10.70
2023-04-19T14:47:41.575Z,10.60
2023-04-19T14:50:11.850Z,10.50
2023-04-19T14:52:39.007Z,10.40
2023-04-19T14:55:09.130Z,10.40
2023-04-19T14:57:36.541Z,10.40
2023-04-19T15:00:03.847Z,10.40
2023-04-19T15:02:31.417Z,10.40
2023-04-19T15:04:59.380Z,10.40
2023-04-19T15:07:27.103Z,10.50
2023-04-19T15:09:54.258Z,10.50
2023-04-19T15:12:21.312Z,10.60
2023-04-19T15:14:48.568Z,10.60
2023-04-19T15:17:15.650Z,10.60
2023-04-19T15:19:42.922Z,10.50
2023-04-19T15:22:11.755Z,10.50
2023-04-19T15:24:39.001Z,10.50
2023-04-19T15:27:06.659Z,10.40
2023-04-19T15:29:33.864Z,10.40
2023-04-19T15:32:01.058Z,10.40
2023-04-19T15:34:28.031Z,10.40
2023-04-19T15:36:55.647Z,10.40
2023-04-19T15:39:22.775Z,10.40
2023-04-19T15:41:50.857Z,10.40
2023-04-19T15:44:18.035Z,10.40
2023-04-19T15:46:45.266Z,10.30
2023-04-19T15:49:12.603Z,10.20
2023-04-19T15:51:39.839Z,10.20
2023-04-19T15:54:07.158Z,10.20
2023-04-19T15:56:34.616Z,10.30
2023-04-19T15:59:01.904Z,10.30
2023-04-19T16:01:28.899Z,10.30
2023-04-19T16:03:56.748Z,10.40
2023-04-19T16:06:24.083Z,10.40
2023-04-19T16:08:51.602Z,10.40
2023-04-19T16:11:18.782Z,10.40
2023-04-19T16:13:45.855Z,10.40
2023-04-19T16:16:13.170Z,10.40
2023-04-19T16:18:40.717Z,10.40
2023-04-19T16:21:08.086Z,10.40
2023-04-19T16:23:35.608Z,10.40
2023-04-19T16:26:02.706Z,10.30
2023-04-19T16:28:29.985Z,10.30
2023-04-19T16:31:00.165Z,10.30
2023-04-19T16:33:27.754Z,10.30
2023-04-19T16:35:55.297Z,10.30
2023-04-19T16:38:25.311Z,10.30
2023-04-19T16:40:53.898Z,10.30
2023-04-19T16:43:26.741Z,10.30
2023-04-19T16:45:54.107Z,10.30
2023-04-19T16:48:21.866Z,10.30
2023-04-19T16:50:49.784Z,10.30
2023-04-19T16:53:17.296Z,10.30
2023-04-19T16:55:44.858Z,10.30
2023-04-19T16:58:12.466Z,10.30
2023-04-19T17:00:40.132Z,10.20
2023-04-19T17:03:10.151Z,10.20
2023-04-19T17:05:39.277Z,10.20
2023-04-19T17:08:06.802Z,10.20
2023-04-19T17:10:34.158Z,10.20
2023-04-19T17:13:01.566Z,10.10
2023-04-19T17:15:28.882Z,10.10
2023-04-19T17:17:56.099Z,10.10
2023-04-19T17:20:23.752Z,10.00
2023-04-19T17:22:50.987Z,10.00
2023-04-19T17:25:19.151Z,9.90
2023-04-19T17:27:47.704Z,9.90
2023-04-19T17:30:15.218Z,9.80
2023-04-19T17:32:42.370Z,9.80
2023-04-19T17:35:10.287Z,9.80
2023-04-19T17:37:37.833Z,9.80
2023-04-19T17:40:05.638Z,9.80
2023-04-19T17:42:32.673Z,9.70
2023-04-19T17:45:00.604Z,9.70
2023-04-19T17:47:27.911Z,9.60
2023-04-19T17:50:04.521Z,9.60
2023-04-19T17:52:31.702Z,9.50
2023-04-19T17:54:58.899Z,9.50
2023-04-19T17:57:28.360Z,9.50
2023-04-19T17:59:56.377Z,9.50
2023-04-19T18:02:24.417Z,9.50
2023-04-19T18:04:52.078Z,9.50
2023-04-19T18:07:19.263Z,9.50
2023-04-19T18:09:46.804Z,9.40
2023-04-19T18:12:14.122Z,9.40
2023-04-19T18:14:41.355Z,9.40
2023-04-19T18:17:09.033Z,9.40
2023-04-19T18:19:37.801Z,9.40
2023-04-19T18:22:05.062Z,9.40
2023-04-19T18:24:32.709Z,9.40
2023-04-19T18:27:00.124Z,9.50
2023-04-19T18:29:28.734Z,9.50
2023-04-19T18:31:56.948Z,9.50
2023-04-19T18:34:24.114Z,9.50
2023-04-19T18:36:55.489Z,9.50
2023-04-19T18:39:22.981Z,9.50
2023-04-19T18:41:50.370Z,9.60
2023-04-19T18:46:49.386Z,9.60
2023-04-19T18:49:17.044Z,9.60
2023-04-19T18:51:44.364Z,9.50
2023-04-19T18:54:11.914Z,9.50
2023-04-19T18:59:09.267Z,9.50
2023-04-19T19:01:36.664Z,9.60
2023-04-19T19:06:34.225Z,9.70
2023-04-19T19:09:02.259Z,9.70
2023-04-19T19:14:00.782Z,9.80
2023-04-19T19:16:27.917Z,9.80
2023-04-19T19:18:56.207Z,9.80
2023-04-19T19:21:23.196Z,9.80
2023-04-19T19:23:52.478Z,9.90
2023-04-19T19:26:19.775Z,9.90
2023-04-19T19:28:47.439Z,9.90
2023-04-19T19:31:14.664Z,9.90
2023-04-19T19:33:41.865Z,9.90
2023-04-19T19:36:10.181Z,9.90
2023-04-19T19:38:37.337Z,9.90
2023-04-19T19:41:51.341Z,9.90
2023-04-19T19:43:55.097Z,9.90
2023-04-19T19:46:23.021Z,9.90
2023-04-19T19:48:53.723Z,9.90
2023-04-19T19:51:52.052Z,9.90
2023-04-19T19:54:10.783Z,9.90
2023-04-19T19:56:53.857Z,9.80
2023-04-19T19:59:29.869Z,9.80
2023-04-19T20:01:57.692Z,9.70
2023-04-19T20:04:25.446Z,9.70
2023-04-19T20:09:22.879Z,9.60
2023-04-19T20:11:50.874Z,9.60
2023-04-19T20:14:18.482Z,9.60
2023-04-19T20:16:46.055Z,9.60
2023-04-19T20:19:14.277Z,9.60
2023-04-19T20:21:41.566Z,9.60
2023-04-19T20:24:08.729Z,9.60
2023-04-19T20:26:36.758Z,9.70
2023-04-19T20:29:03.923Z,9.70
2023-04-19T20:31:33.956Z,9.70
2023-04-19T20:34:03.754Z,9.80
2023-04-19T20:36:32.263Z,9.80
2023-04-19T20:39:02.078Z,9.80
2023-04-19T20:41:29.389Z,9.80
2023-04-19T20:43:57.649Z,9.80
2023-04-19T20:46:24.896Z,9.80
2023-04-19T20:48:52.345Z,9.80
2023-04-19T20:51:19.504Z,9.80
2023-04-19T20:53:46.690Z,9.80
2023-04-19T20:56:14.385Z,9.80
2023-04-19T20:58:42.686Z,9.80
2023-04-19T21:01:10.063Z,9.80
2023-04-19T21:03:37.600Z,9.80
2023-04-19T21:06:07.049Z,9.80
2023-04-19T21:08:34.523Z,9.80
2023-04-19T21:11:01.837Z,9.90
2023-04-19T21:13:29.126Z,9.90
2023-04-19T21:15:56.183Z,9.90
2023-04-19T21:18:23.830Z,9.90
2023-04-19T21:20:51.803Z,9.80
2023-04-19T21:23:19.230Z,9.80
2023-04-19T21:25:46.560Z,9.70
2023-04-19T21:28:13.645Z,9.70
2023-04-19T21:30:44.233Z,9.70
2023-04-19T21:33:11.470Z,9.60
2023-04-19T21:35:38.960Z,9.60
2023-04-19T21:38:06.938Z,9.60
2023-04-19T21:40:35.686Z,9.50
2023-04-19T21:43:03.137Z,9.50
2023-04-19T21:45:30.566Z,9.40
2023-04-19T21:47:58.370Z,9.40
2023-04-19T21:50:25.473Z,9.50
2023-04-19T21:52:53.492Z,9.50
2023-04-19T21:55:21.225Z,9.50
2023-04-19T21:57:48.137Z,9.50
2023-04-19T22:00:16.377Z,9.50
2023-04-19T22:02:43.922Z,9.60
2023-04-19T22:05:12.053Z,9.60
2023-04-19T22:07:40.587Z,9.60
2023-04-19T22:10:08.628Z,9.70
2023-04-19T22:12:42.584Z,9.70
2023-04-19T22:15:16.439Z,9.70
2023-04-19T22:17:45.209Z,9.70
2023-04-19T22:20:16.302Z,9.70
2023-04-19T22:22:43.556Z,9.70
2023-04-19T22:25:11.051Z,9.60
2023-04-19T22:27:38.311Z,9.60
2023-04-19T22:30:05.776Z,9.60
2023-04-19T22:32:33.378Z,9.60
2023-04-19T22:35:00.733Z,9.60
2023-04-19T22:37:27.922Z,9.60
2023-04-19T22:39:55.213Z,9.60
2023-04-19T22:42:23.822Z,9.60
2023-04-19T22:44:51.120Z,9.50
2023-04-19T22:47:19.911Z,9.50
2023-04-19T22:49:47.526Z,9.50
2023-04-19T22:52:15.139Z,9.50
2023-04-19T22:54:43.418Z,9.50
2023-04-19T22:57:12.173Z,9.50
2023-04-19T22:59:39.451Z,9.50
2023-04-19T23:02:07.603Z,9.50
2023-04-19T23:04:38.649Z,9.50
2023-04-19T23:07:06.584Z,9.50
2023-04-19T23:09:33.678Z,9.40
2023-04-19T23:12:01.176Z,9.40
2023-04-19T23:14:29.422Z,9.40
2023-04-19T23:16:58.120Z,9.40
2023-04-19T23:19:25.682Z,9.40
2023-04-19T23:21:52.937Z,9.40
2023-04-19T23:24:20.017Z,9.40
2023-04-19T23:26:46.994Z,9.50
2023-04-19T23:29:14.222Z,9.50
2023-04-19T23:31:41.712Z,9.50
2023-04-19T23:34:09.680Z,9.40
2023-04-19T23:36:43.118Z,9.40
2023-04-19T23:39:11.128Z,9.40
2023-04-19T23:41:40.096Z,9.40
2023-04-19T23:44:07.569Z,9.30
2023-04-19T23:46:34.677Z,9.30
2023-04-19T23:49:01.955Z,9.30
2023-04-19T23:51:29.040Z,9.30
2023-04-19T23:53:56.362Z,9.30
2023-04-19T23:56:23.448Z,9.30
2023-04-19T23:58:50.690Z,9.30
